createdAt,value
2023-01-29T00:00:10.669Z,97313.08
2023-01-29T00:03:01.393Z,97316.48
2023-01-29T00:05:29.692Z,97318.69
2023-01-29T00:07:58.033Z,97320.59
2023-01-29T00:10:26.613Z,97323.34
2023-01-29T00:12:55.403Z,97323.94
2023-01-29T00:15:23.822Z,97327.37
2023-01-29T00:17:52.057Z,97328.27
2023-01-29T00:20:20.297Z,97331.50
2023-01-29T00:22:48.942Z,97333.08
2023-01-29T00:25:17.309Z,97331.40
2023-01-29T00:27:45.581Z,97329.37
2023-01-29T00:30:14.525Z,97332.62
2023-01-29T00:32:42.878Z,97336.76
2023-01-29T00:35:11.760Z,97340.88
2023-01-29T00:37:40.080Z,97343.83
2023-01-29T00:40:09.522Z,97344.20
2023-01-29T00:42:56.184Z,97350.02
2023-01-29T00:45:24.536Z,97350.19
2023-01-29T00:47:52.614Z,97347.45
2023-01-29T00:50:20.994Z,97346.25
2023-01-29T00:52:50.190Z,97343.71
2023-01-29T00:55:18.690Z,97340.48
2023-01-29T00:57:47.306Z,97338.59
2023-01-29T01:00:19.349Z,97344.56
2023-01-29T01:03:05.823Z,97346.10
2023-01-29T01:05:34.833Z,97347.94
2023-01-29T01:08:02.925Z,97348.62
2023-01-29T01:10:33.582Z,97349.39
2023-01-29T01:13:06.870Z,97344.25
2023-01-29T01:15:38.105Z,97346.48
2023-01-29T01:18:07.082Z,97346.11
2023-01-29T01:20:36.188Z,97339.44
2023-01-29T01:23:04.925Z,97343.70
2023-01-29T01:25:33.156Z,97339.10
2023-01-29T01:28:02.260Z,97335.69
2023-01-29T01:30:30.657Z,97337.05
2023-01-29T01:33:00.054Z,97333.28
2023-01-29T01:35:28.539Z,97327.69
2023-01-29T01:37:56.508Z,97326.98
2023-01-29T01:40:26.561Z,97327.99
2023-01-29T01:42:57.165Z,97324.73
2023-01-29T01:45:32.012Z,97324.39
2023-01-29T01:48:26.889Z,97319.41
2023-01-29T01:51:06.621Z,97320.94
2023-01-29T01:53:39.919Z,97325.68
2023-01-29T01:56:16.588Z,97330.89
2023-01-29T01:58:50.763Z,97332.41
2023-01-29T02:01:26.540Z,97335.45
2023-01-29T02:04:25.229Z,97335.44
2023-01-29T02:07:13.898Z,97334.17
2023-01-29T02:10:05.593Z,97335.68
2023-01-29T02:12:34.761Z,97338.02
2023-01-29T02:15:04.009Z,97338.50
2023-01-29T02:17:32.734Z,97335.09
2023-01-29T02:20:26.585Z,97332.55
2023-01-29T02:22:56.493Z,97333.71
2023-01-29T02:25:35.933Z,97334.23
2023-01-29T02:28:07.159Z,97341.64
2023-01-29T02:30:50.355Z,97345.27
2023-01-29T02:33:29.308Z,97346.43
2023-01-29T02:36:32.883Z,97340.83
2023-01-29T02:39:17.233Z,97343.27
2023-01-29T02:41:54.933Z,97342.27
2023-01-29T02:44:47.365Z,97347.21
2023-01-29T02:47:29.296Z,97348.40
2023-01-29T02:50:04.599Z,97358.15
2023-01-29T02:52:50.908Z,97365.50
2023-01-29T02:55:29.505Z,97368.08
2023-01-29T02:58:11.253Z,97373.71
2023-01-29T03:00:45.312Z,97381.58
2023-01-29T03:03:25.142Z,97384.98
2023-01-29T03:06:20.386Z,97390.45
2023-01-29T03:08:56.524Z,97394.73
2023-01-29T03:11:31.118Z,97396.27
2023-01-29T03:14:00.043Z,97398.50
2023-01-29T03:16:37.377Z,97400.90
2023-01-29T03:19:20.578Z,97406.70
2023-01-29T03:22:01.722Z,97408.61
2023-01-29T03:25:01.838Z,97406.91
2023-01-29T03:28:01.704Z,97409.83
2023-01-29T03:30:57.233Z,97410.33
2023-01-29T03:33:42.189Z,97412.73
2023-01-29T03:36:16.909Z,97413.96
2023-01-29T03:38:46.003Z,97413.63
2023-01-29T03:41:32.801Z,97414.05
2023-01-29T03:44:16.236Z,97418.58
2023-01-29T03:46:50.660Z,97421.75
2023-01-29T03:49:44.837Z,97427.28
2023-01-29T03:52:37.565Z,97424.39
2023-01-29T03:55:23.133Z,97424.75
2023-01-29T03:58:06.573Z,97426.64
2023-01-29T04:00:40.608Z,97428.46
2023-01-29T04:03:33.632Z,97430.29
2023-01-29T04:06:12.044Z,97425.90
2023-01-29T04:09:02.112Z,97423.17
2023-01-29T04:11:33.387Z,97424.95
2023-01-29T04:14:02.181Z,97427.20
2023-01-29T04:16:39.605Z,97428.91
2023-01-29T04:19:21.644Z,97428.39
2023-01-29T04:21:57.995Z,97427.02
2023-01-29T04:24:26.058Z,97428.52
2023-01-29T04:27:23.941Z,97422.70
2023-01-29T04:30:21.177Z,97420.14
2023-01-29T04:33:07.894Z,97415.34
2023-01-29T04:35:51.622Z,97413.42
2023-01-29T04:38:57.012Z,97409.45
2023-01-29T04:41:30.341Z,97411.16
2023-01-29T04:44:04.144Z,97413.56
2023-01-29T04:46:51.053Z,97413.79
2023-01-29T04:49:30.147Z,97418.54
2023-01-29T04:52:12.480Z,97421.48
2023-01-29T04:54:58.947Z,97430.66
2023-01-29T04:57:43.440Z,97429.11
2023-01-29T05:00:19.456Z,97428.80
2023-01-29T05:02:49.089Z,97428.96
2023-01-29T05:05:20.359Z,97429.82
2023-01-29T05:07:49.519Z,97431.16
2023-01-29T05:10:20.383Z,97433.55
2023-01-29T05:12:56.659Z,97439.89
2023-01-29T05:15:31.791Z,97444.52
2023-01-29T05:18:03.120Z,97441.63
2023-01-29T05:20:34.643Z,97447.80
2023-01-29T05:23:02.976Z,97448.98
2023-01-29T05:25:33.478Z,97451.16
2023-01-29T05:28:08.427Z,97455.77
2023-01-29T05:30:38.790Z,97462.41
2023-01-29T05:33:14.874Z,97463.61
2023-01-29T05:35:43.012Z,97464.64
2023-01-29T05:38:11.904Z,97469.45
2023-01-29T05:40:40.330Z,97470.39
2023-01-29T05:43:35.076Z,97475.88
2023-01-29T05:46:03.556Z,97477.93
2023-01-29T05:48:32.664Z,97475.92
2023-01-29T05:51:05.138Z,97481.08
2023-01-29T05:53:33.820Z,97485.70
2023-01-29T05:56:03.085Z,97483.48
2023-01-29T05:58:32.468Z,97483.31
2023-01-29T06:01:10.806Z,97483.07
2023-01-29T06:03:38.816Z,97485.66
2023-01-29T06:06:07.300Z,97488.78
2023-01-29T06:08:35.986Z,97491.54
2023-01-29T06:11:07.146Z,97497.00
2023-01-29T06:13:35.532Z,97499.38
2023-01-29T06:16:11.150Z,97500.26
2023-01-29T06:18:40.260Z,97501.13
2023-01-29T06:21:11.507Z,97506.61
2023-01-29T06:23:40.821Z,97508.14
2023-01-29T06:26:12.120Z,97510.35
2023-01-29T06:28:40.683Z,97507.60
2023-01-29T06:31:27.393Z,97511.94
2023-01-29T06:33:57.492Z,97513.97
2023-01-29T06:36:25.667Z,97509.17
2023-01-29T06:38:53.945Z,97509.85
2023-01-29T06:41:25.600Z,97508.80
2023-01-29T06:43:53.883Z,97507.27
2023-01-29T06:46:22.365Z,97510.70
2023-01-29T06:48:50.686Z,97519.94
2023-01-29T06:51:18.934Z,97518.91
2023-01-29T06:53:47.083Z,97512.95
2023-01-29T06:56:15.392Z,97518.10
2023-01-29T06:58:43.882Z,97520.38
2023-01-29T07:01:17.535Z,97524.32
2023-01-29T07:03:57.733Z,97521.58
2023-01-29T07:06:29.444Z,97515.41
2023-01-29T07:08:57.710Z,97514.55
2023-01-29T07:11:25.847Z,97514.68
2023-01-29T07:13:53.920Z,97515.52
2023-01-29T07:16:22.157Z,97513.98
2023-01-29T07:18:50.277Z,97510.35
2023-01-29T07:21:18.472Z,97503.00
2023-01-29T07:23:46.634Z,97504.36
2023-01-29T07:26:15.334Z,97502.97
2023-01-29T07:28:43.469Z,97500.24
2023-01-29T07:31:13.727Z,97497.83
2023-01-29T07:33:44.605Z,97496.46
2023-01-29T07:36:14.082Z,97495.61
2023-01-29T07:38:42.068Z,97501.25
2023-01-29T07:41:12.392Z,97503.98
2023-01-29T07:43:40.450Z,97507.22
2023-01-29T07:46:09.206Z,97511.83
2023-01-29T07:48:37.638Z,97512.90
2023-01-29T07:51:06.022Z,97516.33
2023-01-29T07:53:34.408Z,97522.03
2023-01-29T07:56:02.886Z,97520.19
2023-01-29T07:58:30.967Z,97513.86
2023-01-29T08:00:59.158Z,97514.15
2023-01-29T08:03:27.325Z,97512.93
2023-01-29T08:05:55.393Z,97514.80
2023-01-29T08:08:23.458Z,97512.89
2023-01-29T08:10:51.486Z,97513.38
2023-01-29T08:13:19.818Z,97515.91
2023-01-29T08:15:48.122Z,97517.92
2023-01-29T08:18:16.286Z,97517.23
2023-01-29T08:20:44.489Z,97515.23
2023-01-29T08:23:15.125Z,97521.56
2023-01-29T08:25:43.742Z,97521.39
2023-01-29T08:28:12.664Z,97528.55
2023-01-29T08:30:41.311Z,97530.20
2023-01-29T08:33:10.385Z,97530.53
2023-01-29T08:35:38.666Z,97531.17
2023-01-29T08:38:07.143Z,97532.35
2023-01-29T08:40:35.601Z,97537.78
2023-01-29T08:43:07.800Z,97537.77
2023-01-29T08:45:40.399Z,97540.27
2023-01-29T08:48:09.269Z,97538.67
2023-01-29T08:50:37.762Z,97537.31
2023-01-29T08:53:08.316Z,97536.63
2023-01-29T08:55:41.067Z,97540.03
2023-01-29T08:58:11.491Z,97544.25
2023-01-29T09:00:39.793Z,97541.48
2023-01-29T09:03:08.209Z,97543.14
2023-01-29T09:05:38.151Z,97549.93
2023-01-29T09:08:07.912Z,97549.92
2023-01-29T09:10:36.499Z,97548.36
2023-01-29T09:13:05.183Z,97545.46
2023-01-29T09:15:33.314Z,97545.63
2023-01-29T09:18:04.395Z,97544.62
2023-01-29T09:20:32.999Z,97539.50
2023-01-29T09:23:06.081Z,97544.27
2023-01-29T09:25:34.769Z,97545.28
2023-01-29T09:28:03.358Z,97544.40
2023-01-29T09:30:33.523Z,97541.73
2023-01-29T09:33:01.669Z,97545.09
2023-01-29T09:35:29.647Z,97543.65
2023-01-29T09:37:58.037Z,97547.19
2023-01-29T09:40:39.210Z,97543.92
2023-01-29T09:43:14.333Z,97541.00
2023-01-29T09:45:54.758Z,97535.16
2023-01-29T09:48:29.098Z,97532.23
2023-01-29T09:51:00.610Z,97525.48
2023-01-29T09:53:46.649Z,97524.95
2023-01-29T09:56:17.183Z,97521.36
2023-01-29T09:58:45.375Z,97519.69
2023-01-29T10:01:33.123Z,97515.10
2023-01-29T10:04:10.431Z,97518.20
2023-01-29T10:07:00.549Z,97520.64
2023-01-29T10:09:57.374Z,97513.55
2023-01-29T10:12:43.883Z,97508.48
2023-01-29T10:15:27.733Z,97505.26
2023-01-29T10:18:11.139Z,97507.84
2023-01-29T10:20:57.649Z,97508.21
2023-01-29T10:23:34.690Z,97508.88
2023-01-29T10:26:03.212Z,97507.50
2023-01-29T10:28:43.301Z,97511.90
2023-01-29T10:31:19.812Z,97519.10
2023-01-29T10:34:03.061Z,97526.23
2023-01-29T10:36:45.054Z,97527.52
2023-01-29T10:39:18.740Z,97529.68
2023-01-29T10:41:58.096Z,97532.38
2023-01-29T10:44:46.317Z,97528.90
2023-01-29T10:47:57.001Z,97526.31
2023-01-29T10:50:46.323Z,97531.09
2023-01-29T10:53:59.037Z,97533.13
2023-01-29T10:56:51.265Z,97533.77
2023-01-29T10:59:34.523Z,97535.17
2023-01-29T11:02:03.563Z,97534.42
2023-01-29T11:04:32.658Z,97538.65
2023-01-29T11:07:00.847Z,97540.16
2023-01-29T11:12:16.751Z,97533.58
2023-01-29T11:14:55.992Z,97532.66
2023-01-29T11:17:26.134Z,97531.29
2023-01-29T11:19:58.287Z,97529.50
2023-01-29T11:22:28.838Z,97525.48
2023-01-29T11:25:18.300Z,97523.59
2023-01-29T11:27:56.682Z,97522.54
2023-01-29T11:30:42.018Z,97523.05
2023-01-29T11:33:21.693Z,97525.23
2023-01-29T11:35:52.740Z,97520.45
2023-01-29T11:38:29.759Z,97518.57
2023-01-29T11:41:18.789Z,97510.54
2023-01-29T11:43:46.941Z,97515.79
2023-01-29T11:46:16.504Z,97515.95
2023-01-29T11:48:50.385Z,97513.00
2023-01-29T11:51:25.708Z,97503.55
2023-01-29T11:53:57.305Z,97501.45
2023-01-29T11:56:42.147Z,97504.05
2023-01-29T11:59:28.928Z,97503.37
2023-01-29T12:02:17.565Z,97496.54
2023-01-29T12:04:46.663Z,97496.03
2023-01-29T12:07:18.039Z,97498.10
2023-01-29T12:09:53.267Z,97497.76
2023-01-29T12:12:31.985Z,97496.75
2023-01-29T12:15:04.355Z,97494.95
2023-01-29T12:17:38.255Z,97495.15
2023-01-29T12:20:22.411Z,97489.55
2023-01-29T12:22:58.146Z,97488.38
2023-01-29T12:25:42.806Z,97483.35
2023-01-29T12:28:26.651Z,97489.27
2023-01-29T12:31:23.912Z,97485.45
2023-01-29T12:34:10.999Z,97484.80
2023-01-29T12:36:53.201Z,97492.20
2023-01-29T12:39:21.739Z,97489.34
2023-01-29T12:41:58.051Z,97490.60
2023-01-29T12:44:34.631Z,97483.09
2023-01-29T12:47:08.065Z,97484.27
2023-01-29T12:49:39.683Z,97483.01
2023-01-29T12:52:17.983Z,97484.76
2023-01-29T12:55:00.389Z,97483.69
2023-01-29T12:57:47.083Z,97487.64
2023-01-29T13:00:40.524Z,97486.14
2023-01-29T13:03:18.089Z,97482.44
2023-01-29T13:05:52.153Z,97478.36
2023-01-29T13:08:41.004Z,97479.73
2023-01-29T13:11:18.289Z,97485.20
2023-01-29T13:14:15.328Z,97487.98
2023-01-29T13:16:48.045Z,97488.88
2023-01-29T13:19:29.057Z,97494.89
2023-01-29T13:22:01.768Z,97490.52
2023-01-29T13:24:40.786Z,97494.96
2023-01-29T13:27:22.055Z,97497.39
2023-01-29T13:29:50.478Z,97493.94
2023-01-29T13:32:30.442Z,97491.87
2023-01-29T13:35:02.666Z,97496.17
2023-01-29T13:37:41.280Z,97495.67
2023-01-29T13:40:22.455Z,97500.64
2023-01-29T13:42:54.205Z,97497.07
2023-01-29T13:45:42.761Z,97497.40
2023-01-29T13:48:37.033Z,97499.66
2023-01-29T13:51:15.775Z,97505.34
2023-01-29T13:53:53.896Z,97506.40
2023-01-29T13:56:47.917Z,97509.04
2023-01-29T13:59:49.785Z,97507.42
2023-01-29T14:02:22.693Z,97504.26
2023-01-29T14:04:51.132Z,97498.85
2023-01-29T14:07:44.081Z,97497.42
2023-01-29T14:10:18.349Z,97492.73
2023-01-29T14:12:48.625Z,97493.48
2023-01-29T14:15:24.160Z,97496.41
2023-01-29T14:18:06.987Z,97494.72
2023-01-29T14:20:52.862Z,97494.75
2023-01-29T14:23:33.239Z,97493.75
2023-01-29T14:26:05.093Z,97494.29
2023-01-29T14:28:35.108Z,97495.30
2023-01-29T14:31:04.169Z,97497.05
2023-01-29T14:33:41.685Z,97498.10
2023-01-29T14:36:14.413Z,97498.30
2023-01-29T14:38:52.522Z,97501.38
2023-01-29T14:41:29.783Z,97505.00
2023-01-29T14:44:35.711Z,97508.34
2023-01-29T14:47:05.029Z,97510.98
2023-01-29T14:50:27.640Z,97506.72
2023-01-29T14:53:34.705Z,97509.02
2023-01-29T14:56:14.961Z,97509.80
2023-01-29T14:59:14.754Z,97505.25
2023-01-29T15:02:03.449Z,97502.03
2023-01-29T15:04:49.176Z,97501.73
2023-01-29T15:07:30.161Z,97506.21
2023-01-29T15:10:24.526Z,97514.95
2023-01-29T15:13:00.787Z,97518.99
2023-01-29T15:15:37.739Z,97521.86
2023-01-29T15:18:09.399Z,97530.56
2023-01-29T15:20:40.102Z,97526.64
2023-01-29T15:23:38.158Z,97523.89
2023-01-29T15:26:08.553Z,97520.02
2023-01-29T15:28:39.197Z,97523.77
2023-01-29T15:31:13.459Z,97527.16
2023-01-29T15:33:45.782Z,97529.15
2023-01-29T15:36:22.582Z,97527.26
2023-01-29T15:39:14.789Z,97522.60
2023-01-29T15:41:43.792Z,97518.45
2023-01-29T15:44:18.817Z,97521.88
2023-01-29T15:46:54.795Z,97527.16
2023-01-29T15:49:45.675Z,97526.79
2023-01-29T15:52:20.525Z,97527.30
2023-01-29T15:54:48.701Z,97526.98
2023-01-29T15:57:30.959Z,97525.64
2023-01-29T15:59:59.166Z,97525.83
2023-01-29T16:02:40.169Z,97525.09
2023-01-29T16:05:16.068Z,97527.29
2023-01-29T16:07:45.492Z,97526.59
2023-01-29T16:10:24.196Z,97524.90
2023-01-29T16:12:53.627Z,97530.89
2023-01-29T16:15:33.768Z,97529.89
2023-01-29T16:18:05.169Z,97520.33
2023-01-29T16:20:45.580Z,97516.73
2023-01-29T16:23:21.022Z,97514.70
2023-01-29T16:25:50.134Z,97512.83
2023-01-29T16:28:19.531Z,97509.11
2023-01-29T16:30:48.185Z,97506.37
2023-01-29T16:33:17.728Z,97505.33
2023-01-29T16:35:52.127Z,97505.11
2023-01-29T16:38:30.859Z,97505.79
2023-01-29T16:41:07.535Z,97513.11
2023-01-29T16:43:42.068Z,97508.65
2023-01-29T16:46:19.871Z,97509.21
2023-01-29T16:48:48.142Z,97512.60
2023-01-29T16:51:29.107Z,97511.09
2023-01-29T16:54:06.412Z,97513.11
2023-01-29T16:56:35.385Z,97519.27
2023-01-29T16:59:05.528Z,97518.92
2023-01-29T17:01:36.525Z,97516.58
2023-01-29T17:04:13.856Z,97522.27
2023-01-29T17:06:45.648Z,97526.37
2023-01-29T17:09:29.957Z,97524.16
2023-01-29T17:12:05.401Z,97524.00
2023-01-29T17:14:34.513Z,97525.36
2023-01-29T17:17:05.955Z,97529.27
2023-01-29T17:19:33.999Z,97529.11
2023-01-29T17:22:05.701Z,97528.92
2023-01-29T17:24:34.071Z,97527.76
2023-01-29T17:27:02.270Z,97521.59
2023-01-29T17:29:31.674Z,97524.65
2023-01-29T17:32:00.292Z,97519.86
2023-01-29T17:34:28.630Z,97519.69
2023-01-29T17:36:57.411Z,97517.78
2023-01-29T17:39:25.906Z,97520.84
2023-01-29T17:41:56.758Z,97515.01
2023-01-29T17:44:27.877Z,97515.35
2023-01-29T17:46:56.068Z,97517.75
2023-01-29T17:49:25.894Z,97516.23
2023-01-29T17:51:55.394Z,97513.55
2023-01-29T17:54:25.641Z,97513.88
2023-01-29T17:56:54.415Z,97516.17
2023-01-29T17:59:26.389Z,97520.63
2023-01-29T18:01:54.681Z,97520.28
2023-01-29T18:04:23.296Z,97521.66
2023-01-29T18:06:53.383Z,97519.96
2023-01-29T18:09:22.096Z,97524.57
2023-01-29T18:11:51.167Z,97528.31
2023-01-29T18:14:19.563Z,97532.44
2023-01-29T18:16:47.865Z,97535.35
2023-01-29T18:19:27.737Z,97538.11
2023-01-29T18:21:55.839Z,97538.97
2023-01-29T18:24:26.669Z,97538.22
2023-01-29T18:26:54.863Z,97534.48
2023-01-29T18:29:22.907Z,97536.66
2023-01-29T18:31:51.168Z,97536.95
2023-01-29T18:34:19.376Z,97538.61
2023-01-29T18:36:48.058Z,97539.09
2023-01-29T18:39:17.129Z,97543.78
2023-01-29T18:41:45.157Z,97544.42
2023-01-29T18:44:14.060Z,97547.05
2023-01-29T18:46:42.539Z,97546.84
2023-01-29T18:49:10.945Z,97545.65
2023-01-29T18:51:39.101Z,97546.68
2023-01-29T18:54:07.283Z,97543.52
2023-01-29T18:56:35.269Z,97545.65
2023-01-29T18:59:05.601Z,97549.39
2023-01-29T19:01:34.913Z,97546.55
2023-01-29T19:04:03.278Z,97545.63
2023-01-29T19:06:35.700Z,97541.99
2023-01-29T19:09:05.475Z,97541.52
2023-01-29T19:11:33.641Z,97543.79
2023-01-29T19:14:01.714Z,97539.77
2023-01-29T19:16:29.916Z,97536.95
2023-01-29T19:18:59.136Z,97541.77
2023-01-29T19:21:28.611Z,97542.56
2023-01-29T19:23:56.994Z,97543.84
2023-01-29T19:26:24.977Z,97545.14
2023-01-29T19:28:53.249Z,97548.95
2023-01-29T19:31:21.436Z,97549.33
2023-01-29T19:33:49.504Z,97553.73
2023-01-29T19:36:17.505Z,97553.80
2023-01-29T19:38:45.662Z,97555.17
2023-01-29T19:41:13.733Z,97551.13
2023-01-29T19:43:43.144Z,97553.08
2023-01-29T19:46:11.143Z,97554.79
2023-01-29T19:48:39.138Z,97558.30
2023-01-29T19:51:10.336Z,97565.23
2023-01-29T19:53:40.459Z,97570.98
2023-01-29T19:56:11.834Z,97567.73
2023-01-29T19:58:40.003Z,97568.55
2023-01-29T20:01:21.788Z,97569.15
2023-01-29T20:03:52.515Z,97567.23
2023-01-29T20:06:24.064Z,97568.98
2023-01-29T20:08:52.668Z,97567.00
2023-01-29T20:11:22.903Z,97561.91
2023-01-29T20:13:52.357Z,97560.61
2023-01-29T20:16:21.312Z,97556.71
2023-01-29T20:18:49.527Z,97556.88
2023-01-29T20:21:20.803Z,97553.29
2023-01-29T20:23:50.630Z,97555.66
2023-01-29T20:26:19.966Z,97557.23
2023-01-29T20:28:49.254Z,97550.23
2023-01-29T20:31:17.455Z,97551.75
2023-01-29T20:33:45.529Z,97550.39
2023-01-29T20:36:14.857Z,97547.98
2023-01-29T20:38:43.011Z,97551.42
2023-01-29T20:41:11.266Z,97550.11
2023-01-29T20:43:39.696Z,97555.29
2023-01-29T20:46:08.934Z,97559.59
2023-01-29T20:48:37.847Z,97558.26
2023-01-29T20:51:13.751Z,97559.48
2023-01-29T20:53:43.488Z,97556.69
2023-01-29T20:56:12.514Z,97556.94
2023-01-29T20:58:41.308Z,97556.66
2023-01-29T21:01:15.660Z,97554.11
2023-01-29T21:03:44.726Z,97551.06
2023-01-29T21:06:14.225Z,97554.02
2023-01-29T21:08:42.369Z,97548.61
2023-01-29T21:11:11.356Z,97543.48
2023-01-29T21:13:39.572Z,97541.16
2023-01-29T21:16:08.524Z,97536.10
2023-01-29T21:18:36.864Z,97536.36
2023-01-29T21:21:05.766Z,97538.14
2023-01-29T21:23:33.843Z,97534.31
2023-01-29T21:26:03.878Z,97531.60
2023-01-29T21:28:33.569Z,97528.02
2023-01-29T21:31:10.473Z,97528.70
2023-01-29T21:33:38.840Z,97528.88
2023-01-29T21:36:07.991Z,97530.45
2023-01-29T21:38:37.040Z,97532.51
2023-01-29T21:41:08.968Z,97532.88
2023-01-29T21:43:37.892Z,97531.57
2023-01-29T21:46:12.101Z,97535.20
2023-01-29T21:48:40.693Z,97534.34
2023-01-29T21:51:09.095Z,97538.15
2023-01-29T21:53:37.364Z,97537.18
2023-01-29T21:56:06.359Z,97532.80
2023-01-29T21:58:34.397Z,97535.91
2023-01-29T22:01:35.659Z,97529.30
2023-01-29T22:03:50.435Z,97527.45
2023-01-29T22:06:18.515Z,97522.05
2023-01-29T22:08:49.369Z,97524.09
2023-01-29T22:11:17.744Z,97522.85
2023-01-29T22:13:45.815Z,97521.80
2023-01-29T22:16:13.997Z,97515.45
2023-01-29T22:18:42.149Z,97513.27
2023-01-29T22:21:10.239Z,97509.52
2023-01-29T22:23:39.566Z,97509.69
2023-01-29T22:26:09.543Z,97502.65
2023-01-29T22:28:37.766Z,97499.89
2023-01-29T22:31:06.269Z,97500.58
2023-01-29T22:33:34.922Z,97502.15
2023-01-29T22:36:03.944Z,97503.52
2023-01-29T22:38:32.204Z,97502.80
2023-01-29T22:41:00.809Z,97504.34
2023-01-29T22:43:31.736Z,97503.66
2023-01-29T22:45:59.831Z,97497.67
2023-01-29T22:48:28.822Z,97493.88
2023-01-29T22:51:11.421Z,97490.48
2023-01-29T22:53:48.605Z,97490.13
2023-01-29T22:56:18.302Z,97488.61
2023-01-29T22:58:54.191Z,97492.54
2023-01-29T23:01:25.353Z,97491.84
2023-01-29T23:03:53.799Z,97494.56
2023-01-29T23:06:22.390Z,97496.14
2023-01-29T23:08:51.290Z,97502.46
2023-01-29T23:11:21.613Z,97506.55
2023-01-29T23:13:52.231Z,97512.20
2023-01-29T23:16:23.102Z,97514.58
2023-01-29T23:18:54.214Z,97514.04
2023-01-29T23:21:25.141Z,97515.55
2023-01-29T23:23:55.414Z,97516.93
2023-01-29T23:26:43.052Z,97517.95
2023-01-29T23:29:11.309Z,97516.43
2023-01-29T23:31:39.955Z,97513.34
2023-01-29T23:34:08.166Z,97512.82
2023-01-29T23:36:36.462Z,97512.64
2023-01-29T23:39:04.916Z,97510.11
2023-01-29T23:41:33.413Z,97514.05
2023-01-29T23:44:01.596Z,97514.39
2023-01-29T23:46:30.352Z,97512.86
2023-01-29T23:48:58.676Z,97515.60
2023-01-29T23:51:26.745Z,97516.93
2023-01-29T23:53:54.808Z,97516.07
2023-01-29T23:56:23.003Z,97512.30
2023-01-29T23:58:55.067Z,97506.15
